createdAt,value
2023-04-09T00:01:34.906Z,100570.23
2023-04-09T00:04:02.424Z,100568.91
2023-04-09T00:06:31.539Z,100571.55
2023-04-09T00:08:58.485Z,100569.84
2023-04-09T00:11:29.147Z,100565.26
2023-04-09T00:13:57.556Z,100571.32
2023-04-09T00:16:24.623Z,100569.36
2023-04-09T00:18:52.106Z,100567.60
2023-04-09T00:21:20.335Z,100565.63
2023-04-09T00:23:47.180Z,100565.11
2023-04-09T00:26:14.120Z,100565.42
2023-04-09T00:28:41.268Z,100568.59
2023-04-09T00:31:10.241Z,100567.08
2023-04-09T00:33:38.062Z,100568.30
2023-04-09T00:36:05.704Z,100565.14
2023-04-09T00:38:32.627Z,100564.29
2023-04-09T00:41:05.096Z,100565.63
2023-04-09T00:43:33.077Z,100569.38
2023-04-09T00:46:00.942Z,100572.96
2023-04-09T00:48:29.324Z,100576.90
2023-04-09T00:50:56.264Z,100572.31
2023-04-09T00:53:24.167Z,100571.89
2023-04-09T00:55:52.920Z,100569.59
2023-04-09T00:58:32.322Z,100569.79
2023-04-09T01:00:59.590Z,100569.88
2023-04-09T01:03:28.080Z,100575.21
2023-04-09T01:06:04.585Z,100576.14
2023-04-09T01:08:46.647Z,100573.84
2023-04-09T01:11:26.312Z,100574.11
2023-04-09T01:14:08.663Z,100579.64
2023-04-09T01:16:37.081Z,100579.55
2023-04-09T01:19:16.419Z,100578.86
2023-04-09T01:21:44.288Z,100579.56
2023-04-09T01:24:55.061Z,100586.33
2023-04-09T01:27:44.937Z,100583.67
2023-04-09T01:30:12.264Z,100583.42
2023-04-09T01:32:40.059Z,100580.98
2023-04-09T01:35:08.227Z,100580.83
2023-04-09T01:37:36.335Z,100580.30
2023-04-09T01:40:04.998Z,100577.84
2023-04-09T01:42:32.881Z,100575.64
2023-04-09T01:45:05.292Z,100577.88
2023-04-09T01:47:33.988Z,100576.55
2023-04-09T01:50:01.056Z,100575.65
2023-04-09T01:52:29.376Z,100573.80
2023-04-09T01:54:56.649Z,100574.15
2023-04-09T01:57:24.498Z,100574.61
2023-04-09T01:59:51.667Z,100572.84
2023-04-09T02:02:49.749Z,100571.63
2023-04-09T02:05:18.088Z,100576.48
2023-04-09T02:07:48.968Z,100574.44
2023-04-09T02:10:16.936Z,100576.27
2023-04-09T02:12:46.534Z,100574.86
2023-04-09T02:15:14.609Z,100576.11
2023-04-09T02:17:43.322Z,100577.10
2023-04-09T02:20:15.667Z,100579.09
2023-04-09T02:22:43.450Z,100577.29
2023-04-09T02:25:12.117Z,100576.43
2023-04-09T02:27:39.068Z,100575.95
2023-04-09T02:30:08.055Z,100576.84
2023-04-09T02:32:36.266Z,100576.60
2023-04-09T02:35:07.788Z,100583.45
2023-04-09T02:37:36.472Z,100585.70
2023-04-09T02:40:04.142Z,100588.43
2023-04-09T02:42:32.818Z,100595.15
2023-04-09T02:45:00.746Z,100593.34
2023-04-09T02:47:30.195Z,100587.61
2023-04-09T02:49:58.170Z,100587.57
2023-04-09T02:52:26.542Z,100590.61
2023-04-09T02:54:55.439Z,100586.61
2023-04-09T02:57:22.691Z,100586.81
2023-04-09T02:59:54.241Z,100585.60
2023-04-09T03:02:22.773Z,100592.52
2023-04-09T03:04:50.594Z,100593.38
2023-04-09T03:07:17.741Z,100593.33
2023-04-09T03:09:44.993Z,100593.30
2023-04-09T03:12:12.154Z,100593.45
2023-04-09T03:14:39.194Z,100590.70
2023-04-09T03:17:06.754Z,100590.86
2023-04-09T03:19:33.599Z,100589.52
2023-04-09T03:22:01.716Z,100592.20
2023-04-09T03:24:31.574Z,100594.02
2023-04-09T03:28:08.879Z,100594.59
2023-04-09T03:30:45.849Z,100599.91
2023-04-09T03:33:15.571Z,100594.84
2023-04-09T03:35:55.869Z,100598.55
2023-04-09T03:38:50.825Z,100599.55
2023-04-09T03:41:30.869Z,100603.91
2023-04-09T03:44:00.707Z,100606.77
2023-04-09T03:46:33.626Z,100606.54
2023-04-09T03:49:02.989Z,100603.17
2023-04-09T03:51:41.299Z,100601.63
2023-04-09T03:54:13.320Z,100604.46
2023-04-09T03:56:41.843Z,100605.58
2023-04-09T03:59:14.856Z,100605.56
2023-04-09T04:01:46.956Z,100604.23
2023-04-09T04:04:16.365Z,100599.40
2023-04-09T04:06:50.418Z,100595.64
2023-04-09T04:09:29.152Z,100600.21
2023-04-09T04:12:02.552Z,100598.45
2023-04-09T04:14:53.039Z,100601.17
2023-04-09T04:17:27.088Z,100600.98
2023-04-09T04:19:57.976Z,100603.81
2023-04-09T04:22:26.565Z,100602.97
2023-04-09T04:24:57.204Z,100602.23
2023-04-09T04:27:26.498Z,100601.13
2023-04-09T04:29:55.010Z,100599.17
2023-04-09T04:32:54.299Z,100605.73
2023-04-09T04:35:23.744Z,100605.50
2023-04-09T04:38:08.625Z,100603.16
2023-04-09T04:40:40.823Z,100607.64
2023-04-09T04:43:09.507Z,100607.27
2023-04-09T04:45:41.282Z,100608.52
2023-04-09T04:48:13.539Z,100612.80
2023-04-09T04:50:45.805Z,100613.60
2023-04-09T04:53:15.214Z,100613.16
2023-04-09T04:55:48.516Z,100613.91
2023-04-09T04:58:19.145Z,100613.16
2023-04-09T05:00:53.100Z,100616.29
2023-04-09T05:03:23.614Z,100620.27
2023-04-09T05:06:05.471Z,100626.98
2023-04-09T05:08:40.811Z,100631.04
2023-04-09T05:11:13.415Z,100630.61
2023-04-09T05:13:46.990Z,100637.79
2023-04-09T05:16:20.513Z,100638.23
2023-04-09T05:18:54.083Z,100641.09
2023-04-09T05:21:22.887Z,100643.28
2023-04-09T05:23:54.945Z,100645.56
2023-04-09T05:26:24.245Z,100643.02
2023-04-09T05:28:59.190Z,100649.13
2023-04-09T05:31:33.705Z,100650.78
2023-04-09T05:34:08.402Z,100646.64
2023-04-09T05:36:41.421Z,100643.55
2023-04-09T05:39:14.817Z,100645.78
2023-04-09T05:41:45.142Z,100649.62
2023-04-09T05:44:39.413Z,100648.42
2023-04-09T05:47:13.134Z,100651.66
2023-04-09T05:49:47.668Z,100651.91
2023-04-09T05:52:20.117Z,100653.61
2023-04-09T05:54:48.719Z,100652.02
2023-04-09T05:57:20.782Z,100652.72
2023-04-09T05:59:58.176Z,100653.40
2023-04-09T06:02:26.991Z,100654.67
2023-04-09T06:04:56.524Z,100658.75
2023-04-09T06:07:34.477Z,100658.38
2023-04-09T06:10:03.060Z,100656.65
2023-04-09T06:12:32.061Z,100659.13
2023-04-09T06:15:07.711Z,100662.17
2023-04-09T06:17:38.355Z,100663.73
2023-04-09T06:20:08.699Z,100667.67
2023-04-09T06:22:41.747Z,100672.48
2023-04-09T06:25:11.286Z,100673.61
2023-04-09T06:27:41.962Z,100674.08
2023-04-09T06:30:18.559Z,100673.13
2023-04-09T06:32:54.553Z,100674.36
2023-04-09T06:35:24.294Z,100676.62
2023-04-09T06:37:53.116Z,100676.12
2023-04-09T06:40:23.525Z,100678.73
2023-04-09T06:42:52.032Z,100673.91
2023-04-09T06:45:29.030Z,100672.48
2023-04-09T06:47:58.432Z,100670.73
2023-04-09T06:50:32.261Z,100669.30
2023-04-09T06:53:01.516Z,100671.53
2023-04-09T06:55:30.004Z,100670.46
2023-04-09T06:58:02.961Z,100668.13
2023-04-09T07:00:31.878Z,100668.89
2023-04-09T07:03:16.525Z,100668.89
2023-04-09T07:05:45.323Z,100671.97
2023-04-09T07:08:13.918Z,100674.13
2023-04-09T07:10:42.789Z,100676.95
2023-04-09T07:13:13.172Z,100676.72
2023-04-09T07:15:42.571Z,100677.48
2023-04-09T07:18:12.133Z,100675.81
2023-04-09T07:20:43.213Z,100675.66
2023-04-09T07:23:12.058Z,100675.40
2023-04-09T07:25:40.159Z,100675.90
2023-04-09T07:28:08.507Z,100677.40
2023-04-09T07:30:38.962Z,100680.77
2023-04-09T07:33:08.380Z,100680.45
2023-04-09T07:35:38.961Z,100684.37
2023-04-09T07:38:07.562Z,100683.10
2023-04-09T07:40:37.037Z,100681.08
2023-04-09T07:43:07.080Z,100680.92
2023-04-09T07:45:35.564Z,100677.70
2023-04-09T07:48:06.194Z,100679.38
2023-04-09T07:50:35.400Z,100680.07
2023-04-09T07:53:04.086Z,100677.86
2023-04-09T07:55:32.352Z,100681.63
2023-04-09T07:58:01.248Z,100671.80
2023-04-09T08:00:33.414Z,100672.89
2023-04-09T08:03:04.369Z,100670.26
2023-04-09T08:05:38.452Z,100666.55
2023-04-09T08:08:14.526Z,100665.70
2023-04-09T08:10:44.250Z,100664.69
2023-04-09T08:13:12.636Z,100653.65
2023-04-09T08:15:46.737Z,100658.11
2023-04-09T08:18:15.325Z,100656.98
2023-04-09T08:20:45.751Z,100656.63
2023-04-09T08:23:24.360Z,100654.58
2023-04-09T08:25:53.217Z,100655.14
2023-04-09T08:28:22.477Z,100652.36
2023-04-09T08:30:51.271Z,100651.73
2023-04-09T08:33:19.550Z,100650.05
2023-04-09T08:35:47.854Z,100643.96
2023-04-09T08:38:16.975Z,100649.30
2023-04-09T08:40:45.530Z,100653.50
2023-04-09T08:43:17.793Z,100648.13
2023-04-09T08:45:46.939Z,100648.98
2023-04-09T08:48:15.271Z,100649.77
2023-04-09T08:50:46.630Z,100651.27
2023-04-09T08:53:15.100Z,100649.90
2023-04-09T08:55:47.471Z,100648.65
2023-04-09T08:58:15.659Z,100647.57
2023-04-09T09:01:25.716Z,100650.80
2023-04-09T09:03:55.820Z,100648.91
2023-04-09T09:06:27.303Z,100650.01
2023-04-09T09:09:06.790Z,100648.42
2023-04-09T09:11:37.161Z,100645.05
2023-04-09T09:14:10.975Z,100646.40
2023-04-09T09:16:59.075Z,100645.41
2023-04-09T09:19:27.348Z,100647.54
2023-04-09T09:22:04.600Z,100642.40
2023-04-09T09:24:34.180Z,100640.05
2023-04-09T09:27:03.033Z,100636.60
2023-04-09T09:29:32.021Z,100641.71
2023-04-09T09:32:00.199Z,100642.73
2023-04-09T09:34:28.759Z,100635.91
2023-04-09T09:36:57.938Z,100633.09
2023-04-09T09:39:26.990Z,100628.92
2023-04-09T09:42:07.686Z,100628.41
2023-04-09T09:44:36.517Z,100624.43
2023-04-09T09:47:05.026Z,100622.13
2023-04-09T09:49:33.606Z,100625.92
2023-04-09T09:52:03.325Z,100625.91
2023-04-09T09:54:34.953Z,100628.19
2023-04-09T09:57:06.060Z,100623.86
2023-04-09T09:59:43.964Z,100615.02
2023-04-09T10:02:19.805Z,100615.36
2023-04-09T10:04:49.280Z,100612.77
2023-04-09T10:07:24.181Z,100611.42
2023-04-09T10:09:55.152Z,100602.48
2023-04-09T10:12:26.355Z,100600.34
2023-04-09T10:14:56.064Z,100602.92
2023-04-09T10:17:24.668Z,100600.06
2023-04-09T10:20:12.907Z,100597.84
2023-04-09T10:22:41.762Z,100598.42
2023-04-09T10:25:21.442Z,100595.55
2023-04-09T10:28:02.472Z,100596.30
2023-04-09T10:30:37.052Z,100590.83
2023-04-09T10:33:27.110Z,100585.64
2023-04-09T10:36:01.818Z,100589.29
2023-04-09T10:38:38.151Z,100587.11
2023-04-09T10:41:15.273Z,100583.33
2023-04-09T10:43:43.881Z,100588.10
2023-04-09T10:46:35.019Z,100586.44
2023-04-09T10:49:20.018Z,100580.10
2023-04-09T10:52:02.767Z,100580.67
2023-04-09T10:54:34.619Z,100575.04
2023-04-09T10:57:08.008Z,100569.60
2023-04-09T10:59:46.642Z,100565.64
2023-04-09T11:02:50.696Z,100562.83
2023-04-09T11:05:38.555Z,100559.38
2023-04-09T11:08:14.365Z,100559.10
2023-04-09T11:10:45.122Z,100555.62
2023-04-09T11:13:15.206Z,100555.45
2023-04-09T11:15:47.811Z,100555.27
2023-04-09T11:18:25.424Z,100546.77
2023-04-09T11:21:13.721Z,100547.81
2023-04-09T11:23:43.427Z,100546.20
2023-04-09T11:26:16.721Z,100545.73
2023-04-09T11:28:56.553Z,100547.61
2023-04-09T11:31:29.378Z,100547.34
2023-04-09T11:34:18.826Z,100543.12
2023-04-09T11:36:49.776Z,100535.54
2023-04-09T11:39:20.189Z,100532.45
2023-04-09T11:41:52.153Z,100526.03
2023-04-09T11:44:24.629Z,100521.67
2023-04-09T11:46:59.634Z,100516.81
2023-04-09T11:49:46.987Z,100520.05
2023-04-09T11:52:18.241Z,100513.72
2023-04-09T11:54:54.805Z,100509.82
2023-04-09T11:57:47.249Z,100510.91
2023-04-09T12:00:17.347Z,100521.11
2023-04-09T12:03:03.810Z,100511.70
2023-04-09T12:05:50.835Z,100509.00
2023-04-09T12:08:25.168Z,100508.14
2023-04-09T12:11:11.517Z,100503.48
2023-04-09T12:13:44.992Z,100501.31
2023-04-09T12:16:15.088Z,100497.85
2023-04-09T12:19:06.960Z,100502.42
2023-04-09T12:21:58.799Z,100499.10
2023-04-09T12:24:28.289Z,100496.61
2023-04-09T12:27:01.893Z,100491.60
2023-04-09T12:29:30.892Z,100490.23
2023-04-09T12:31:59.550Z,100491.36
2023-04-09T12:34:30.415Z,100491.30
2023-04-09T12:37:05.143Z,100488.73
2023-04-09T12:39:34.544Z,100487.35
2023-04-09T12:42:04.564Z,100488.84
2023-04-09T12:44:37.552Z,100482.97
2023-04-09T12:47:05.902Z,100477.77
2023-04-09T12:49:40.558Z,100475.63
2023-04-09T12:52:10.146Z,100476.40
2023-04-09T12:54:44.666Z,100473.67
2023-04-09T12:57:13.259Z,100476.34
2023-04-09T12:59:45.371Z,100472.59
2023-04-09T13:02:13.866Z,100476.73
2023-04-09T13:04:43.187Z,100476.91
2023-04-09T13:07:13.357Z,100473.70
2023-04-09T13:09:46.241Z,100472.05
2023-04-09T13:12:15.825Z,100477.58
2023-04-09T13:14:47.525Z,100477.38
2023-04-09T13:17:19.250Z,100475.98
2023-04-09T13:19:55.546Z,100474.16
2023-04-09T13:22:27.610Z,100471.90
2023-04-09T13:24:59.060Z,100471.41
2023-04-09T13:27:29.385Z,100472.30
2023-04-09T13:30:02.370Z,100478.02
2023-04-09T13:32:49.427Z,100481.48
2023-04-09T13:35:19.429Z,100483.48
2023-04-09T13:37:48.889Z,100484.71
2023-04-09T13:40:18.188Z,100483.21
2023-04-09T13:42:50.142Z,100482.16
2023-04-09T13:45:23.034Z,100482.11
2023-04-09T13:47:55.457Z,100482.80
2023-04-09T13:50:23.737Z,100481.16
2023-04-09T13:52:52.005Z,100475.40
2023-04-09T13:55:20.896Z,100477.27
2023-04-09T13:57:49.168Z,100477.93
2023-04-09T14:00:20.141Z,100476.26
2023-04-09T14:02:56.546Z,100476.70
2023-04-09T14:05:25.547Z,100472.88
2023-04-09T14:07:55.566Z,100471.40
2023-04-09T14:10:23.906Z,100471.42
2023-04-09T14:12:52.591Z,100462.10
2023-04-09T14:15:20.771Z,100468.02
2023-04-09T14:17:50.098Z,100467.13
2023-04-09T14:20:21.486Z,100462.91
2023-04-09T14:22:50.950Z,100462.84
2023-04-09T14:25:19.244Z,100464.03
2023-04-09T14:27:47.725Z,100478.56
2023-04-09T14:30:19.302Z,100482.82
2023-04-09T14:33:07.177Z,100486.01
2023-04-09T14:35:41.604Z,100486.98
2023-04-09T14:38:14.520Z,100498.52
2023-04-09T14:40:44.337Z,100498.08
2023-04-09T14:43:12.802Z,100503.12
2023-04-09T14:45:47.936Z,100509.90
2023-04-09T14:48:16.420Z,100504.22
2023-04-09T14:50:51.563Z,100508.66
2023-04-09T14:53:26.451Z,100515.48
2023-04-09T14:56:14.639Z,100507.34
2023-04-09T14:58:47.912Z,100507.17
2023-04-09T15:01:21.649Z,100503.95
2023-04-09T15:04:10.291Z,100506.04
2023-04-09T15:06:42.162Z,100510.57
2023-04-09T15:09:14.630Z,100521.13
2023-04-09T15:11:43.446Z,100519.32
2023-04-09T15:14:18.043Z,100518.04
2023-04-09T15:16:47.772Z,100513.60
2023-04-09T15:19:17.488Z,100513.15
2023-04-09T15:21:52.295Z,100519.53
2023-04-09T15:24:20.770Z,100520.19
2023-04-09T15:26:58.374Z,100521.71
2023-04-09T15:29:43.848Z,100513.17
2023-04-09T15:32:23.950Z,100506.95
2023-04-09T15:34:56.995Z,100504.51
2023-04-09T15:37:29.885Z,100497.63
2023-04-09T15:39:58.461Z,100501.63
2023-04-09T15:42:28.292Z,100500.98
2023-04-09T15:47:01.128Z,100501.61
2023-04-09T15:49:37.126Z,100497.50
2023-04-09T15:52:06.538Z,100496.39
2023-04-09T15:54:35.897Z,100493.94
2023-04-09T15:57:12.071Z,100495.81
2023-04-09T15:59:44.286Z,100496.92
2023-04-09T16:02:16.391Z,100502.31
2023-04-09T16:04:48.651Z,100500.60
2023-04-09T16:07:17.624Z,100498.21
2023-04-09T16:09:54.951Z,100499.75
2023-04-09T16:12:26.299Z,100502.17
2023-04-09T16:15:08.131Z,100500.51
2023-04-09T16:17:40.769Z,100505.38
2023-04-09T16:20:11.861Z,100506.02
2023-04-09T16:22:48.323Z,100506.33
2023-04-09T16:25:16.812Z,100505.77
2023-04-09T16:27:48.558Z,100501.33
2023-04-09T16:30:23.985Z,100500.30
2023-04-09T16:32:56.893Z,100502.34
2023-04-09T16:35:26.449Z,100501.60
2023-04-09T16:38:09.507Z,100501.05
2023-04-09T16:40:46.652Z,100505.23
2023-04-09T16:43:19.362Z,100502.54
2023-04-09T16:45:49.611Z,100503.38
2023-04-09T16:48:37.316Z,100509.22
2023-04-09T16:51:12.994Z,100517.41
2023-04-09T16:53:45.274Z,100518.48
2023-04-09T16:56:19.595Z,100516.89
2023-04-09T16:58:48.690Z,100521.95
2023-04-09T17:01:21.156Z,100527.61
2023-04-09T17:03:50.010Z,100524.46
2023-04-09T17:06:19.450Z,100523.71
2023-04-09T17:08:49.458Z,100526.66
2023-04-09T17:11:19.527Z,100523.38
2023-04-09T17:13:50.944Z,100525.58
2023-04-09T17:16:19.263Z,100528.73
2023-04-09T17:18:53.144Z,100528.65
2023-04-09T17:21:27.623Z,100529.84
2023-04-09T17:24:02.549Z,100533.45
2023-04-09T17:26:34.393Z,100536.77
2023-04-09T17:29:04.040Z,100535.27
2023-04-09T17:31:32.279Z,100533.02
2023-04-09T17:34:20.221Z,100541.36
2023-04-09T17:36:56.502Z,100543.68
2023-04-09T17:39:25.788Z,100548.67
2023-04-09T17:41:56.628Z,100553.32
2023-04-09T17:44:35.757Z,100554.28
2023-04-09T17:47:12.527Z,100555.79
2023-04-09T17:49:42.958Z,100557.64
2023-04-09T17:52:14.934Z,100557.64
2023-04-09T17:54:47.002Z,100557.33
2023-04-09T17:57:15.666Z,100559.71
2023-04-09T17:59:51.865Z,100557.55
2023-04-09T18:02:23.642Z,100556.79
2023-04-09T18:04:53.663Z,100557.05
2023-04-09T18:07:24.511Z,100561.92
2023-04-09T18:10:02.302Z,100559.26
2023-04-09T18:12:39.089Z,100557.27
2023-04-09T18:15:11.855Z,100561.27
2023-04-09T18:17:41.700Z,100562.90
2023-04-09T18:20:18.686Z,100563.06
2023-04-09T18:22:47.471Z,100567.48
2023-04-09T18:25:21.394Z,100568.64
2023-04-09T18:27:53.375Z,100567.05
2023-04-09T18:30:26.654Z,100562.39
2023-04-09T18:32:59.863Z,100565.34
2023-04-09T18:35:32.450Z,100566.02
2023-04-09T18:38:08.587Z,100573.23
2023-04-09T18:40:43.928Z,100574.20
2023-04-09T18:43:14.161Z,100568.56
2023-04-09T18:45:43.566Z,100566.20
2023-04-09T18:48:18.364Z,100564.90
2023-04-09T18:50:48.605Z,100568.88
2023-04-09T18:53:23.945Z,100568.18
2023-04-09T18:55:52.365Z,100569.05
2023-04-09T18:58:20.604Z,100569.91
2023-04-09T19:00:54.311Z,100569.18
2023-04-09T19:03:24.214Z,100568.10
2023-04-09T19:05:52.820Z,100568.02
2023-04-09T19:08:22.530Z,100568.98
2023-04-09T19:10:50.910Z,100570.39
2023-04-09T19:13:19.316Z,100571.08
2023-04-09T19:15:49.234Z,100568.63
2023-04-09T19:18:19.032Z,100568.99
2023-04-09T19:20:48.227Z,100565.17
2023-04-09T19:23:17.006Z,100566.09
2023-04-09T19:25:45.908Z,100565.32
2023-04-09T19:28:15.715Z,100565.86
2023-04-09T19:30:44.810Z,100562.44
2023-04-09T19:33:13.801Z,100561.77
2023-04-09T19:35:43.047Z,100558.94
2023-04-09T19:38:16.901Z,100561.48
2023-04-09T19:40:46.778Z,100562.96
2023-04-09T19:43:16.620Z,100569.92
2023-04-09T19:45:46.396Z,100567.54
2023-04-09T19:48:16.040Z,100568.30
2023-04-09T19:50:48.096Z,100573.14
2023-04-09T19:53:18.660Z,100566.76
2023-04-09T19:55:47.683Z,100563.75
2023-04-09T19:58:17.247Z,100566.04
2023-04-09T20:00:45.906Z,100567.95
2023-04-09T20:03:17.557Z,100561.84
2023-04-09T20:05:46.677Z,100563.74
2023-04-09T20:08:16.086Z,100564.16
2023-04-09T20:10:47.804Z,100566.23
2023-04-09T20:13:18.436Z,100564.66
2023-04-09T20:15:47.093Z,100566.44
2023-04-09T20:18:20.727Z,100570.57
2023-04-09T20:20:52.148Z,100568.26
2023-04-09T20:23:21.446Z,100567.86
2023-04-09T20:25:56.425Z,100568.11
2023-04-09T20:28:26.330Z,100563.48
2023-04-09T20:30:54.606Z,100564.71
2023-04-09T20:33:23.348Z,100562.91
2023-04-09T20:35:52.606Z,100562.83
2023-04-09T20:38:22.611Z,100565.11
2023-04-09T20:40:53.063Z,100556.54
2023-04-09T20:43:21.680Z,100558.35
2023-04-09T20:45:53.381Z,100562.08
2023-04-09T20:48:22.082Z,100560.37
2023-04-09T20:50:51.417Z,100557.69
2023-04-09T20:53:24.472Z,100557.84
2023-04-09T20:55:54.803Z,100557.55
2023-04-09T20:58:22.981Z,100556.70
2023-04-09T21:00:51.265Z,100555.82
2023-04-09T21:03:21.011Z,100553.06
2023-04-09T21:05:54.650Z,100554.39
2023-04-09T21:08:24.158Z,100553.57
2023-04-09T21:10:52.480Z,100550.14
2023-04-09T21:13:25.101Z,100546.80
2023-04-09T21:15:54.729Z,100547.20
2023-04-09T21:18:23.353Z,100547.48
2023-04-09T21:20:52.071Z,100546.64
2023-04-09T21:23:25.873Z,100549.39
2023-04-09T21:25:54.226Z,100553.44
2023-04-09T21:28:22.693Z,100555.97
2023-04-09T21:30:52.847Z,100557.02
2023-04-09T21:33:21.261Z,100561.42
2023-04-09T21:35:52.979Z,100563.89
2023-04-09T21:38:21.473Z,100564.35
2023-04-09T21:40:50.038Z,100562.83
2023-04-09T21:43:19.079Z,100565.30
2023-04-09T21:45:49.032Z,100562.48
2023-04-09T21:48:19.417Z,100564.48
2023-04-09T21:50:49.123Z,100566.10
2023-04-09T21:53:21.496Z,100569.56
2023-04-09T21:55:49.957Z,100567.59
2023-04-09T21:58:18.227Z,100561.93
2023-04-09T22:00:47.063Z,100564.31
2023-04-09T22:03:16.213Z,100566.55
2023-04-09T22:05:46.062Z,100566.50
2023-04-09T22:08:15.630Z,100560.89
2023-04-09T22:10:44.378Z,100556.48
2023-04-09T22:13:21.734Z,100554.91
2023-04-09T22:15:52.684Z,100556.25
2023-04-09T22:18:21.247Z,100557.95
2023-04-09T22:20:52.764Z,100556.60
2023-04-09T22:23:21.664Z,100556.01
2023-04-09T22:25:49.928Z,100550.55
2023-04-09T22:28:20.230Z,100553.14
2023-04-09T22:30:48.778Z,100555.08
2023-04-09T22:33:17.729Z,100560.59
2023-04-09T22:35:48.149Z,100559.05
2023-04-09T22:38:18.287Z,100559.06
2023-04-09T22:40:49.819Z,100558.55
2023-04-09T22:43:18.088Z,100560.25
2023-04-09T22:45:53.590Z,100559.00
2023-04-09T22:48:23.265Z,100554.96
2023-04-09T22:50:51.708Z,100557.30
2023-04-09T22:53:21.052Z,100555.64
2023-04-09T22:55:51.437Z,100555.48
2023-04-09T22:58:20.143Z,100558.02
2023-04-09T23:00:50.733Z,100555.05
2023-04-09T23:03:19.534Z,100555.67
2023-04-09T23:05:48.608Z,100554.86
2023-04-09T23:08:16.905Z,100554.70
2023-04-09T23:10:54.658Z,100550.42
2023-04-09T23:13:23.440Z,100553.77
2023-04-09T23:15:52.054Z,100550.98
2023-04-09T23:18:20.733Z,100545.35
2023-04-09T23:20:49.279Z,100548.88
2023-04-09T23:23:18.315Z,100553.42
2023-04-09T23:25:46.988Z,100545.63
2023-04-09T23:28:16.191Z,100549.78
2023-04-09T23:30:44.832Z,100545.18
2023-04-09T23:33:15.339Z,100544.14
2023-04-09T23:35:44.583Z,100542.88
2023-04-09T23:38:13.658Z,100542.18
2023-04-09T23:40:41.987Z,100539.20
2023-04-09T23:43:10.391Z,100540.03
2023-04-09T23:45:39.850Z,100540.98
2023-04-09T23:48:09.277Z,100540.46
2023-04-09T23:50:39.889Z,100540.80
2023-04-09T23:53:09.251Z,100541.07
2023-04-09T23:55:38.790Z,100542.40
2023-04-09T23:58:10.028Z,100540.49
